Time;durP1;ratioP1;P1;durP2;ratioP2;P2;SDS_P1;SDS_P2;PMS_P1;PMS_P2;Temp;Humidity;BMP_temperature;BMP_pressure;BME280_temperature;BME280_humidity;BME280_pressure;Samples;Min_cycle;Max_cycle;Signal;HPM_P1;HPM_P2
2023/12/07 00:00:09;;;;;;;78.23;40.00;;;;;;;5.81;100.00;92391.00;5065867;28;20229;-75
2023/12/07 00:02:34;;;;;;;83.13;40.30;;;;;;;5.96;100.00;92401.44;5061422;28;20181;-75
2023/12/07 00:05:00;;;;;;;66.57;34.00;;;;;;;6.10;100.00;92386.22;5056943;28;20222;-76
2023/12/07 00:07:25;;;;;;;61.90;36.07;;;;;;;5.84;100.00;92398.31;5067075;28;20766;-76
2023/12/07 00:09:51;;;;;;;60.73;34.70;;;;;;;5.71;100.00;92405.75;5065044;28;20225;-75
2023/12/07 00:12:17;;;;;;;67.00;36.17;;;;;;;6.02;100.00;92397.06;5057038;28;20633;-75
2023/12/07 00:14:42;;;;;;;58.67;33.03;;;;;;;5.55;100.00;92391.19;5066720;28;20249;-75
2023/12/07 00:17:07;;;;;;;60.47;34.50;;;;;;;6.06;100.00;92403.28;5065231;28;20205;-76
2023/12/07 00:19:33;;;;;;;58.67;33.87;;;;;;;6.05;100.00;92401.75;5059522;28;20221;-75
2023/12/07 00:21:58;;;;;;;61.27;32.07;;;;;;;5.88;100.00;92396.75;5066222;28;20190;-76
2023/12/07 00:24:24;;;;;;;60.60;36.13;;;;;;;5.87;100.00;92379.66;5059402;28;20249;-75
2023/12/07 00:26:50;;;;;;;66.53;33.73;;;;;;;6.07;100.00;92399.69;5065571;28;20209;-75
2023/12/07 00:29:15;;;;;;;59.40;31.97;;;;;;;6.20;100.00;92412.13;5061860;28;20257;-75
2023/12/07 00:31:41;;;;;;;55.33;32.07;;;;;;;6.14;100.00;92410.56;5057697;28;20178;-75
2023/12/07 00:34:06;;;;;;;56.13;33.20;;;;;;;6.04;100.00;92393.19;5056008;28;20287;-75
2023/12/07 00:36:32;;;;;;;53.13;31.73;;;;;;;6.13;100.00;92407.19;5060415;28;20166;-75
2023/12/07 00:38:57;;;;;;;57.40;32.47;;;;;;;6.01;100.00;92401.47;5087782;28;20313;-75
2023/12/07 00:41:22;;;;;;;55.57;32.40;;;;;;;6.03;100.00;92403.78;5070674;28;20184;-76
2023/12/07 00:43:48;;;;;;;58.93;32.17;;;;;;;6.08;100.00;92396.03;5064330;28;20257;-76
2023/12/07 00:46:13;;;;;;;62.57;33.10;;;;;;;6.12;100.00;92412.63;5063090;28;20206;-75
2023/12/07 00:48:39;;;;;;;59.90;32.43;;;;;;;6.16;100.00;92392.94;5058436;28;20251;-76
2023/12/07 00:51:06;;;;;;;54.97;30.17;;;;;;;6.20;100.00;92399.16;5063340;28;20269;-76
2023/12/07 00:53:31;;;;;;;52.10;30.10;;;;;;;6.25;100.00;92399.19;5058861;28;20202;-76
2023/12/07 00:55:57;;;;;;;54.47;30.93;;;;;;;6.10;100.00;92388.81;5059505;28;20726;-76
2023/12/07 00:58:22;;;;;;;51.63;30.10;;;;;;;6.10;100.00;92396.56;5070682;28;20212;-75
2023/12/07 01:00:48;;;;;;;50.07;31.50;;;;;;;6.09;100.00;92397.59;5061637;28;20276;-75
2023/12/07 01:03:14;;;;;;;47.20;28.97;;;;;;;6.10;100.00;92393.97;5070131;28;20796;-75
2023/12/07 01:05:39;;;;;;;53.67;30.10;;;;;;;5.98;100.00;92370.88;5101968;28;20226;-75
2023/12/07 01:08:04;;;;;;;51.60;29.43;;;;;;;5.99;100.00;92382.03;5065641;28;20213;-75
2023/12/07 01:10:30;;;;;;;50.20;29.17;;;;;;;6.18;100.00;92385.69;5056252;28;20205;-75
2023/12/07 01:12:55;;;;;;;48.30;27.53;;;;;;;6.13;100.00;92367.56;5064459;28;20186;-75
2023/12/07 01:15:20;;;;;;;50.17;28.93;;;;;;;6.10;100.00;92386.22;5069370;28;20277;-76
2023/12/07 01:17:46;;;;;;;48.87;29.00;;;;;;;5.90;100.00;92368.03;5070153;28;20212;-76
2023/12/07 01:20:12;;;;;;;46.70;27.97;;;;;;;5.82;100.00;92369.28;5056693;28;20217;-76
2023/12/07 01:22:41;;;;;;;44.67;27.27;;;;;;;6.04;100.00;92389.78;5068409;28;20220;-76
2023/12/07 01:25:07;;;;;;;43.60;27.10;;;;;;;5.85;100.00;92373.94;5064082;28;20228;-75
2023/12/07 01:27:32;;;;;;;41.33;27.07;;;;;;;6.07;100.00;92384.88;5063872;28;20191;-76
2023/12/07 01:29:58;;;;;;;41.83;26.57;;;;;;;5.95;100.00;92375.78;5056039;28;20229;-76
2023/12/07 01:32:23;;;;;;;44.37;27.53;;;;;;;6.05;100.00;92389.56;5095313;28;20249;-76
2023/12/07 01:34:48;;;;;;;43.93;28.57;;;;;;;6.14;100.00;92385.44;5058436;28;20225;-75
2023/12/07 01:37:14;;;;;;;44.00;26.50;;;;;;;6.11;100.00;92380.78;5063140;28;20265;-76
2023/12/07 01:39:41;;;;;;;40.37;25.87;;;;;;;5.83;100.00;92378.63;5061118;28;20224;-76
2023/12/07 01:42:08;;;;;;;39.07;26.03;;;;;;;5.86;100.00;92372.16;5063062;28;20291;-76
2023/12/07 01:44:33;;;;;;;37.50;23.77;;;;;;;5.92;100.00;92364.13;5069443;28;20214;-75
2023/12/07 01:46:59;;;;;;;33.63;23.80;;;;;;;6.07;100.00;92358.22;5056401;28;20198;-76
2023/12/07 01:49:25;;;;;;;33.20;24.57;;;;;;;6.17;100.00;92377.16;5057715;28;20245;-76
2023/12/07 01:51:50;;;;;;;37.03;23.80;;;;;;;5.87;100.00;92352.97;5073747;28;20166;-75
2023/12/07 01:54:16;;;;;;;34.97;25.90;;;;;;;6.14;100.00;92379.47;5070136;28;20247;-75
2023/12/07 01:56:42;;;;;;;36.93;25.57;;;;;;;6.06;100.00;92372.19;5069454;28;20197;-76
2023/12/07 01:59:08;;;;;;;36.17;23.83;;;;;;;6.05;100.00;92370.66;5059680;28;20241;-76
2023/12/07 02:01:33;;;;;;;32.77;24.13;;;;;;;5.81;100.00;92365.13;5052360;28;20286;-73
2023/12/07 02:03:58;;;;;;;32.73;23.17;;;;;;;6.14;100.00;92385.44;5053478;28;20257;-74
2023/12/07 02:06:24;;;;;;;35.47;25.43;;;;;;;6.01;100.00;92385.13;5063396;28;20209;-73
2023/12/07 02:08:50;;;;;;;33.13;23.80;;;;;;;6.16;100.00;92369.63;5054810;28;20222;-73
2023/12/07 02:11:15;;;;;;;36.50;24.37;;;;;;;6.22;100.00;92381.56;5063256;28;20239;-73
2023/12/07 02:13:41;;;;;;;31.33;24.20;;;;;;;5.98;100.00;92364.91;5075857;28;20304;-73
2023/12/07 02:16:42;;;;;;;33.80;24.70;;;;;;;6.05;100.00;92365.47;5067288;28;20173;-74
2023/12/07 02:19:38;;;;;;;32.23;23.13;;;;;;;6.07;100.00;92364.16;5058823;28;20222;-76
2023/12/07 02:22:12;;;;;;;28.97;22.67;;;;;;;6.03;100.00;92363.13;5058412;28;20182;-76
2023/12/07 02:24:37;;;;;;;32.87;23.00;;;;;;;6.15;100.00;92362.88;5052937;28;20218;-76
2023/12/07 02:27:03;;;;;;;26.90;21.80;;;;;;;6.07;100.00;92360.81;5056585;28;20249;-76
2023/12/07 02:29:28;;;;;;;28.97;22.00;;;;;;;6.09;100.00;92371.69;5053136;28;20225;-76
2023/12/07 02:31:53;;;;;;;27.80;22.87;;;;;;;5.89;100.00;92336.16;5056115;28;20185;-76
2023/12/07 02:34:19;;;;;;;25.27;21.17;;;;;;;6.15;100.00;92362.88;5058493;28;20201;-76
2023/12/07 02:36:47;;;;;;;28.50;22.57;;;;;;;6.19;100.00;92369.13;5061535;28;20210;-76
2023/12/07 02:39:13;;;;;;;28.63;22.10;;;;;;;6.12;100.00;92360.78;5052305;28;20236;-75
2023/12/07 02:41:40;;;;;;;25.70;21.73;;;;;;;6.13;100.00;92347.56;5065445;28;20189;-76
2023/12/07 02:44:07;;;;;;;30.50;22.30;;;;;;;6.05;100.00;92360.28;5052779;28;20213;-76
2023/12/07 02:46:33;;;;;;;28.27;20.33;;;;;;;5.85;100.00;92339.53;5058851;28;20189;-75
2023/12/07 02:48:59;;;;;;;25.87;21.27;;;;;;;5.89;100.00;92364.66;5064214;28;20785;-76
2023/12/07 02:51:24;;;;;;;26.10;21.07;;;;;;;6.02;100.00;92360.78;5061887;28;20169;-76
2023/12/07 02:53:50;;;;;;;27.83;20.50;;;;;;;6.04;100.00;92358.69;5062622;28;20254;-76
2023/12/07 02:56:15;;;;;;;24.67;19.87;;;;;;;6.03;100.00;92362.34;5098654;28;20216;-76
2023/12/07 02:58:40;;;;;;;27.63;20.70;;;;;;;5.98;100.00;92363.13;5060399;28;20229;-75
2023/12/07 03:01:06;;;;;;;27.37;20.63;;;;;;;5.94;100.00;92350.94;5058154;28;20190;-76
2023/12/07 03:03:31;;;;;;;25.60;21.37;;;;;;;6.04;100.00;92356.13;5061386;28;20208;-76
2023/12/07 03:05:57;;;;;;;26.37;20.20;;;;;;;5.91;100.00;92341.09;5066688;28;20205;-76
2023/12/07 03:08:22;;;;;;;25.97;20.50;;;;;;;6.01;100.00;92361.81;5058976;28;20216;-76
2023/12/07 03:10:48;;;;;;;24.63;19.77;;;;;;;6.06;100.00;92354.84;5056613;28;20264;-75
2023/12/07 03:13:13;;;;;;;28.43;21.20;;;;;;;6.01;100.00;92354.03;5094965;28;20181;-73
2023/12/07 03:15:39;;;;;;;28.77;22.47;;;;;;;6.06;100.00;92367.00;5054586;28;20201;-74
2023/12/07 03:18:05;;;;;;;34.67;24.60;;;;;;;6.11;100.00;92374.78;5058157;28;20217;-73
2023/12/07 03:20:30;;;;;;;38.40;26.87;;;;;;;6.01;100.00;92377.34;5058955;28;20214;-73
2023/12/07 03:22:56;;;;;;;41.73;27.80;;;;;;;6.09;100.00;92382.81;5056597;28;20181;-73
2023/12/07 03:25:21;;;;;;;42.63;25.97;;;;;;;5.98;100.00;92388.22;5051972;28;20214;-74
2023/12/07 03:27:46;;;;;;;43.47;26.73;;;;;;;6.13;100.00;92393.47;5090634;28;20232;-74
2023/12/07 03:30:12;;;;;;;47.20;29.33;;;;;;;6.21;100.00;92390.38;5062432;28;20213;-73
2023/12/07 03:32:38;;;;;;;45.27;29.90;;;;;;;5.98;100.00;92385.66;5057387;28;20186;-76
2023/12/07 03:35:04;;;;;;;49.57;30.77;;;;;;;6.10;100.00;92399.16;5087072;28;20267;-76
2023/12/07 03:37:29;;;;;;;43.60;28.03;;;;;;;5.84;100.00;92379.38;5095020;28;20220;-76
2023/12/07 03:39:54;;;;;;;47.33;29.47;;;;;;;6.17;100.00;92384.13;5049587;28;20237;-77
2023/12/07 03:42:20;;;;;;;54.10;31.33;;;;;;;5.41;100.00;92365.00;5063744;28;20174;-76
2023/12/07 03:44:45;;;;;;;51.67;30.60;;;;;;;5.96;100.00;92398.84;5057169;28;20230;-76
2023/12/07 03:47:11;;;;;;;56.50;29.83;;;;;;;6.17;100.00;92390.09;5052468;28;20700;-76
2023/12/07 03:49:37;;;;;;;57.10;31.10;;;;;;;5.94;100.00;92372.44;5052513;28;20216;-76
2023/12/07 03:52:03;;;;;;;55.63;30.73;;;;;;;6.04;100.00;92379.44;5064505;28;20181;-76
2023/12/07 03:54:28;;;;;;;56.77;31.07;;;;;;;6.12;100.00;92381.53;5062416;28;20383;-76
2023/12/07 03:56:54;;;;;;;50.53;29.97;;;;;;;5.88;100.00;92364.91;5061130;28;20185;-76
2023/12/07 03:59:19;;;;;;;51.67;30.70;;;;;;;6.05;100.00;92375.81;5053628;28;20222;-76
2023/12/07 04:01:45;;;;;;;50.83;29.47;;;;;;;5.87;100.00;92373.69;5055083;28;20399;-76
2023/12/07 04:04:10;;;;;;;49.87;31.00;;;;;;;5.86;100.00;92346.25;5058890;28;20228;-76
2023/12/07 04:06:35;;;;;;;50.40;29.50;;;;;;;6.10;100.00;92375.84;5062732;28;20234;-77
2023/12/07 04:09:01;;;;;;;45.23;29.17;;;;;;;6.18;100.00;92377.91;5060708;28;20221;-76
2023/12/07 04:11:26;;;;;;;43.13;27.87;;;;;;;5.91;100.00;92360.00;5067128;28;20205;-76
2023/12/07 04:13:51;;;;;;;45.60;28.93;;;;;;;5.82;100.00;92382.22;5063517;28;20272;-77
2023/12/07 04:16:17;;;;;;;48.03;30.07;;;;;;;5.66;100.00;92382.41;5101784;28;20197;-77
2023/12/07 04:18:42;;;;;;;43.97;28.83;;;;;;;5.81;100.00;92359.94;5054660;28;20288;-76
2023/12/07 04:21:08;;;;;;;51.20;28.13;;;;;;;6.07;100.00;92395.25;5053319;28;20189;-76
2023/12/07 04:23:33;;;;;;;44.57;28.30;;;;;;;6.10;100.00;92389.56;5068283;28;20224;-76
2023/12/07 04:25:59;;;;;;;40.73;27.60;;;;;;;5.81;100.00;92392.81;5068154;28;20181;-77
2023/12/07 04:28:24;;;;;;;39.00;26.70;;;;;;;6.04;100.00;92405.34;5053695;28;20189;-76
2023/12/07 04:30:50;;;;;;;39.23;25.50;;;;;;;5.70;100.00;92404.97;5062590;28;20191;-76
2023/12/07 04:33:15;;;;;;;38.30;26.60;;;;;;;5.86;100.00;92392.88;5053824;28;20194;-76
2023/12/07 04:35:40;;;;;;;40.67;26.53;;;;;;;5.92;100.00;92407.38;5058412;28;20212;-76
2023/12/07 04:38:06;;;;;;;42.73;28.33;;;;;;;5.90;100.00;92394.69;5057731;28;20222;-77
2023/12/07 04:40:31;;;;;;;44.03;27.97;;;;;;;5.76;100.00;92409.13;5056107;28;20219;-77
2023/12/07 04:42:56;;;;;;;42.90;28.20;;;;;;;6.09;100.00;92413.13;5055974;28;20194;-79
2023/12/07 04:45:22;;;;;;;44.73;27.33;;;;;;;6.10;100.00;92417.31;5075821;28;21060;-78
2023/12/07 04:47:47;;;;;;;39.30;26.77;;;;;;;6.06;100.00;92416.25;5049025;28;20198;-76
2023/12/07 04:50:13;;;;;;;42.10;28.20;;;;;;;6.02;100.00;92410.78;5057097;28;20221;-77
2023/12/07 04:52:38;;;;;;;40.33;27.10;;;;;;;5.70;100.00;92409.34;5065640;28;20197;-78
2023/12/07 04:55:08;;;;;;;48.37;29.27;;;;;;;5.82;100.00;92407.38;5058276;28;20240;-78
2023/12/07 04:57:34;;;;;;;39.97;27.43;;;;;;;6.07;100.00;92417.81;5070921;28;20278;-76
2023/12/07 04:59:59;;;;;;;46.13;27.27;;;;;;;5.94;100.00;92405.34;5069569;28;20221;-80
2023/12/07 05:02:25;;;;;;;45.87;26.77;;;;;;;6.08;100.00;92429.72;5065962;28;20209;-83
2023/12/07 05:04:51;;;;;;;43.77;26.53;;;;;;;6.07;100.00;92421.16;5063614;28;20236;-81
2023/12/07 05:07:16;;;;;;;48.53;28.53;;;;;;;6.02;100.00;92421.16;5064335;28;20194;-80
2023/12/07 05:09:42;;;;;;;50.17;29.30;;;;;;;6.17;100.00;92430.78;5069906;28;20217;-81
2023/12/07 05:12:08;;;;;;;44.67;27.00;;;;;;;6.02;100.00;92426.31;5062826;28;20177;-76
2023/12/07 05:14:34;;;;;;;40.17;26.43;;;;;;;6.10;100.00;92427.66;5065094;28;20230;-75
2023/12/07 05:17:00;;;;;;;50.40;30.30;;;;;;;6.21;100.00;92431.84;5062199;28;20166;-82
2023/12/07 05:19:26;;;;;;;47.60;31.73;;;;;;;5.89;100.00;92424.22;5077333;28;20232;-80
2023/12/07 05:21:52;;;;;;;47.43;27.93;;;;;;;6.16;100.00;92434.41;5057215;28;20214;-81
2023/12/07 05:24:17;;;;;;;40.97;26.10;;;;;;;6.14;100.00;92431.28;5066814;28;20221;-79
2023/12/07 05:26:46;;;;;;;38.83;26.27;;;;;;;6.20;100.00;92435.44;5066483;28;20200;-83
2023/12/07 05:29:11;;;;;;;34.33;25.47;;;;;;;6.29;100.00;92434.69;5069074;28;20223;-81
2023/12/07 05:31:37;;;;;;;34.27;25.63;;;;;;;6.25;100.00;92440.66;5078405;28;20200;-78
2023/12/07 05:34:03;;;;;;;33.10;22.73;;;;;;;6.16;100.00;92437.78;5064601;28;20232;-76
2023/12/07 05:36:29;;;;;;;32.57;25.40;;;;;;;6.50;100.00;92436.31;5054937;28;20234;-75
2023/12/07 05:38:54;;;;;;;31.03;23.47;;;;;;;6.44;100.00;92457.28;5060254;28;20233;-74
2023/12/07 05:41:20;;;;;;;32.27;24.10;;;;;;;6.32;100.00;92460.09;5070258;28;20253;-74
2023/12/07 05:43:45;;;;;;;29.10;23.17;;;;;;;6.26;100.00;92455.16;5059295;28;20241;-74
2023/12/07 05:46:10;;;;;;;35.23;22.93;;;;;;;6.27;100.00;92441.19;5052628;28;20186;-75
2023/12/07 05:48:36;;;;;;;29.17;23.97;;;;;;;6.31;100.00;92457.78;5094108;28;20361;-75
2023/12/07 05:51:02;;;;;;;38.87;31.03;;;;;;;5.97;100.00;92449.66;5063901;28;20181;-75
2023/12/07 05:53:28;;;;;;;34.23;26.90;;;;;;;5.98;100.00;92450.41;5061116;28;20181;-75
2023/12/07 05:55:54;;;;;;;33.37;26.57;;;;;;;6.31;100.00;92447.41;5069861;28;20189;-75
2023/12/07 05:58:19;;;;;;;33.67;26.63;;;;;;;6.31;100.00;92450.00;5067946;28;20217;-74
2023/12/07 06:00:46;;;;;;;34.67;26.47;;;;;;;6.35;100.00;92453.66;5070036;28;20212;-76
2023/12/07 06:03:15;;;;;;;35.53;26.90;;;;;;;6.29;100.00;92454.66;5064837;28;20240;-74
2023/12/07 06:05:41;;;;;;;37.63;26.33;;;;;;;6.31;100.00;92468.13;5062511;28;20797;-76
2023/12/07 06:08:06;;;;;;;33.10;26.40;;;;;;;6.29;100.00;92465.00;5057521;28;20174;-74
2023/12/07 06:10:31;;;;;;;35.43;25.87;;;;;;;6.27;100.00;92459.34;5061320;28;20213;-75
2023/12/07 06:13:00;;;;;;;35.23;24.90;;;;;;;6.34;100.00;92459.84;5073859;28;20184;-74
2023/12/07 06:15:26;;;;;;;31.20;24.63;;;;;;;6.42;100.00;92460.13;5057896;28;20213;-75
2023/12/07 06:17:51;;;;;;;36.20;24.33;;;;;;;6.37;100.00;92448.97;5057447;28;20217;-74
2023/12/07 06:20:17;;;;;;;32.77;26.00;;;;;;;6.35;100.00;92456.25;5057822;28;20247;-75
2023/12/07 06:22:42;;;;;;;30.00;23.00;;;;;;;6.37;100.00;92473.09;5070542;28;20208;-75
2023/12/07 06:25:08;;;;;;;42.90;29.10;;;;;;;6.29;100.00;92467.59;5059901;28;20306;-75
2023/12/07 06:27:37;;;;;;;42.20;29.83;;;;;;;6.40;100.00;92466.59;5056015;28;20177;-75
2023/12/07 06:30:05;;;;;;;29.60;24.27;;;;;;;6.48;100.00;92466.09;5066722;28;20225;-75
2023/12/07 06:32:31;;;;;;;28.63;23.40;;;;;;;6.49;100.00;92478.81;5055370;28;20177;-75
2023/12/07 06:34:56;;;;;;;31.20;23.23;;;;;;;6.15;100.00;92474.31;5056894;28;20247;-75
2023/12/07 06:37:22;;;;;;;30.17;22.77;;;;;;;6.47;100.00;92482.72;5054983;28;20206;-75
2023/12/07 06:39:48;;;;;;;26.83;22.17;;;;;;;6.53;100.00;92486.88;5050147;28;20222;-75
2023/12/07 06:42:14;;;;;;;30.33;23.30;;;;;;;6.67;100.00;92487.94;5052279;28;20235;-75
2023/12/07 06:44:39;;;;;;;29.00;23.87;;;;;;;6.12;100.00;92474.81;5049911;28;20228;-75
2023/12/07 06:47:05;;;;;;;34.03;25.83;;;;;;;6.22;100.00;92480.84;5056452;28;20190;-75
2023/12/07 06:49:31;;;;;;;30.77;24.37;;;;;;;6.43;100.00;92471.28;5068730;28;20300;-76
2023/12/07 06:51:56;;;;;;;33.33;24.17;;;;;;;6.32;100.00;92472.28;5060772;28;20196;-75
2023/12/07 06:54:21;;;;;;;25.10;20.17;;;;;;;6.14;100.00;92478.72;5053145;28;20230;-75
2023/12/07 06:56:47;;;;;;;31.90;23.93;;;;;;;6.06;100.00;92476.63;5063147;28;20185;-75
2023/12/07 06:59:12;;;;;;;28.63;23.87;;;;;;;6.08;100.00;92478.97;5062479;28;20248;-77
2023/12/07 07:01:38;;;;;;;33.83;24.97;;;;;;;5.72;100.00;92474.63;5068568;28;20177;-78
2023/12/07 07:04:04;;;;;;;36.73;26.10;;;;;;;5.69;100.00;92482.91;5067268;28;20241;-78
2023/12/07 07:06:29;;;;;;;47.30;33.73;;;;;;;5.77;100.00;92469.47;5064216;28;20217;-79
2023/12/07 07:08:54;;;;;;;41.97;28.57;;;;;;;6.19;100.00;92477.97;5054462;28;20226;-82
2023/12/07 07:11:20;;;;;;;42.00;29.03;;;;;;;6.38;100.00;92489.44;5068285;28;20186;-81
2023/12/07 07:13:45;;;;;;;40.43;29.37;;;;;;;6.63;100.00;92489.47;5058307;28;20292;-80
2023/12/07 07:16:11;;;;;;;39.23;28.57;;;;;;;6.68;100.00;92494.66;5052911;28;20243;-81
2023/12/07 07:18:39;;;;;;;47.70;32.57;;;;;;;6.31;100.00;92475.91;5049832;28;20217;-82
2023/12/07 07:21:06;;;;;;;44.50;32.23;;;;;;;6.53;100.00;92487.66;5066700;28;20174;-82
2023/12/07 07:23:31;;;;;;;39.90;30.10;;;;;;;6.75;100.00;92499.59;5066388;28;20189;-78
2023/12/07 07:25:57;;;;;;;40.93;29.00;;;;;;;6.86;100.00;92496.00;5066581;28;20256;-78
2023/12/07 07:28:22;;;;;;;33.50;25.10;;;;;;;6.19;100.00;92486.53;5055510;28;20182;-84
2023/12/07 07:30:47;;;;;;;27.67;20.23;;;;;;;6.11;100.00;92452.53;5053821;28;20189;-76
2023/12/07 07:33:13;;;;;;;25.53;21.17;;;;;;;6.31;100.00;92497.44;5063918;28;20224;-77
2023/12/07 07:35:38;;;;;;;27.80;20.27;;;;;;;6.80;100.00;92494.44;5049672;28;20189;-79
2023/12/07 07:38:03;;;;;;;27.10;20.80;;;;;;;6.29;100.00;92501.31;5049722;28;20214;-77
2023/12/07 07:40:29;;;;;;;33.13;24.67;;;;;;;6.22;100.00;92477.44;5060546;28;20248;-79
2023/12/07 07:42:54;;;;;;;27.63;23.87;;;;;;;6.63;100.00;92497.25;5053480;28;20273;-79
2023/12/07 07:45:19;;;;;;;31.20;24.33;;;;;;;6.29;100.00;92496.91;5062180;28;20221;-80
2023/12/07 07:47:45;;;;;;;28.73;21.57;;;;;;;6.05;100.00;92515.75;5058660;28;20202;-80
2023/12/07 07:50:11;;;;;;;39.97;25.73;;;;;;;5.86;100.00;92502.44;5051335;28;20309;-80
2023/12/07 07:52:36;;;;;;;36.10;26.50;;;;;;;6.06;100.00;92515.50;5062279;28;20194;-79
2023/12/07 07:55:05;;;;;;;34.97;24.17;;;;;;;5.99;100.00;92519.34;5054812;28;20236;-79
2023/12/07 07:57:30;;;;;;;29.60;23.27;;;;;;;5.53;100.00;92481.25;5061874;28;20239;-79
2023/12/07 07:59:59;;;;;;;28.00;22.10;;;;;;;5.57;100.00;92490.09;5050516;28;20241;-83
2023/12/07 08:02:24;;;;;;;31.20;24.47;;;;;;;5.72;100.00;92516.84;5080560;28;20228;-75
2023/12/07 08:04:51;;;;;;;26.97;20.93;;;;;;;5.53;100.00;92522.69;5063543;28;20240;-75
2023/12/07 08:07:17;;;;;;;23.20;20.33;;;;;;;5.59;100.00;92524.25;5062885;28;20198;-76
2023/12/07 08:09:42;;;;;;;29.77;20.20;;;;;;;5.66;100.00;92523.03;5048391;28;20957;-78
2023/12/07 08:12:08;;;;;;;23.90;21.30;;;;;;;5.62;100.00;92531.56;5048739;28;20190;-81
2023/12/07 08:14:35;;;;;;;25.30;20.13;;;;;;;5.81;100.00;92530.88;5061067;28;20225;-77
2023/12/07 08:17:01;;;;;;;37.30;24.87;;;;;;;5.40;100.00;92536.06;5053732;28;20190;-76
2023/12/07 08:19:27;;;;;;;35.77;24.97;;;;;;;5.46;100.00;92537.66;5054939;28;20213;-77
2023/12/07 08:21:52;;;;;;;40.57;25.83;;;;;;;5.54;100.00;92539.78;5055665;28;20213;-74
2023/12/07 08:24:17;;;;;;;31.03;24.00;;;;;;;5.10;100.00;92538.44;5047991;28;20218;-74
2023/12/07 08:26:43;;;;;;;27.27;20.40;;;;;;;5.11;100.00;92535.59;5053516;28;20224;-75
2023/12/07 08:29:08;;;;;;;25.83;20.83;;;;;;;4.97;100.00;92535.22;5088219;28;20208;-75
2023/12/07 08:31:34;;;;;;;22.37;19.97;;;;;;;4.88;100.00;92528.94;5052502;28;20213;-76
2023/12/07 08:34:00;;;;;;;22.87;18.90;;;;;;;5.10;100.00;92543.59;5058250;28;20628;-75
2023/12/07 08:36:26;;;;;;;23.67;20.77;;;;;;;5.17;100.00;92544.94;5060834;28;20183;-75
2023/12/07 08:38:51;;;;;;;20.40;18.17;;;;;;;4.88;100.00;92541.88;5089214;28;20272;-75
2023/12/07 08:41:16;;;;;;;18.07;16.20;;;;;;;4.77;100.00;92549.78;5052565;28;20198;-75
2023/12/07 08:43:42;;;;;;;18.40;16.60;;;;;;;4.80;100.00;92554.47;5067713;28;20241;-75
2023/12/07 08:46:07;;;;;;;18.30;16.47;;;;;;;4.55;100.00;92544.66;5065326;28;20232;-75
2023/12/07 08:48:34;;;;;;;20.23;18.13;;;;;;;4.59;100.00;92539.78;5061875;28;21144;-75
2023/12/07 08:50:59;;;;;;;18.67;16.73;;;;;;;4.70;100.00;92547.38;5068032;28;20423;-75
2023/12/07 08:53:26;;;;;;;19.40;17.33;;;;;;;4.50;100.00;92554.94;5062865;28;20182;-75
2023/12/07 08:55:51;;;;;;;19.77;16.47;;;;;;;4.38;100.00;92536.22;5066537;28;20236;-75
2023/12/07 08:58:17;;;;;;;18.93;17.23;;;;;;;4.69;100.00;92561.34;5068457;28;20211;-74
2023/12/07 09:00:43;;;;;;;26.30;19.03;;;;;;;4.88;100.00;92554.03;5070299;28;20186;-75
2023/12/07 09:03:09;;;;;;;20.37;18.10;;;;;;;4.77;100.00;92560.91;5063187;28;20927;-75
2023/12/07 09:05:34;;;;;;;19.57;17.67;;;;;;;4.74;100.00;92550.28;5065016;28;20237;-75
2023/12/07 09:07:59;;;;;;;17.73;15.93;;;;;;;4.61;100.00;92558.41;5063142;28;20201;-75
2023/12/07 09:10:25;;;;;;;16.20;14.80;;;;;;;4.60;100.00;92556.84;5051584;28;20249;-74
2023/12/07 09:12:50;;;;;;;19.10;17.27;;;;;;;4.72;100.00;92553.09;5064962;28;20185;-75
2023/12/07 09:15:15;;;;;;;17.93;16.63;;;;;;;4.45;100.00;92559.28;5063131;28;20281;-75
2023/12/07 09:17:41;;;;;;;18.93;17.07;;;;;;;4.78;100.00;92552.13;5059854;28;20240;-74
2023/12/07 09:20:14;;;;;;;15.27;13.97;;;;;;;4.54;100.00;92556.03;5067351;28;20222;-75
2023/12/07 09:22:44;;;;;;;16.80;15.30;;;;;;;4.48;100.00;92562.16;5070446;28;20200;-75
2023/12/07 09:25:10;;;;;;;16.73;15.13;;;;;;;4.63;100.00;92549.41;5056687;28;20281;-75
2023/12/07 09:27:37;;;;;;;15.37;14.07;;;;;;;4.39;100.00;92553.25;5060080;28;20177;-74
2023/12/07 09:30:07;;;;;;;16.07;14.77;;;;;;;4.70;100.00;92560.31;5063981;28;20230;-75
2023/12/07 09:32:37;;;;;;;13.47;12.40;;;;;;;4.55;100.00;92554.22;5066038;28;20198;-74
2023/12/07 09:35:07;;;;;;;15.17;13.83;;;;;;;4.50;100.00;92548.97;5064897;28;20225;-75
2023/12/07 09:37:34;;;;;;;13.77;12.87;;;;;;;4.27;100.00;92560.38;5070466;28;20241;-74
2023/12/07 09:40:01;;;;;;;14.33;13.33;;;;;;;4.31;100.00;92550.34;5060141;28;20289;-75
2023/12/07 09:42:26;;;;;;;12.53;11.83;;;;;;;4.29;100.00;92555.75;5061655;28;20182;-74
2023/12/07 09:44:52;;;;;;;12.07;11.47;;;;;;;4.17;100.00;92544.75;5053225;28;20226;-74
2023/12/07 09:47:18;;;;;;;12.50;11.70;;;;;;;4.21;100.00;92542.47;5056844;28;20174;-74
2023/12/07 09:49:44;;;;;;;11.73;11.13;;;;;;;4.13;100.00;92542.88;5052732;28;20226;-74
2023/12/07 09:52:10;;;;;;;12.57;11.67;;;;;;;4.02;100.00;92508.41;5068141;28;20181;-74
2023/12/07 09:54:40;;;;;;;12.37;11.67;;;;;;;4.08;100.00;92553.16;5096965;28;20224;-74
2023/12/07 09:57:05;;;;;;;13.33;12.50;;;;;;;4.00;100.00;92546.59;5055880;28;20209;-74
2023/12/07 09:59:31;;;;;;;12.03;11.37;;;;;;;3.93;100.00;92558.13;5054677;28;20911;-74
2023/12/07 10:01:56;;;;;;;13.07;12.27;;;;;;;3.79;100.00;92554.34;5054719;28;20224;-74
2023/12/07 10:04:25;;;;;;;12.17;11.57;;;;;;;3.71;100.00;92554.75;5065574;28;20225;-75
2023/12/07 10:06:54;;;;;;;12.77;11.63;;;;;;;3.78;100.00;92556.16;5097172;28;20190;-75
2023/12/07 10:09:21;;;;;;;12.00;11.30;;;;;;;3.99;100.00;92563.13;5064646;28;20292;-74
2023/12/07 10:11:47;;;;;;;10.67;10.17;;;;;;;3.83;100.00;92556.22;5051680;28;20194;-74
2023/12/07 10:14:12;;;;;;;11.80;11.20;;;;;;;3.81;100.00;92550.53;5055971;28;20234;-74
2023/12/07 10:16:37;;;;;;;12.77;11.97;;;;;;;3.71;100.00;92560.69;5057898;28;20241;-74
2023/12/07 10:19:17;;;;;;;12.67;11.97;;;;;;;3.71;100.00;92560.69;5068977;28;20226;-75
2023/12/07 10:21:44;;;;;;;10.93;10.23;;;;;;;3.47;100.00;92525.78;5057014;28;20189;-74
2023/12/07 10:24:10;;;;;;;11.33;10.73;;;;;;;3.48;100.00;92549.78;5060833;28;20233;-74
2023/12/07 10:26:39;;;;;;;11.77;11.10;;;;;;;3.37;100.00;92530.81;5070927;28;20241;-75
2023/12/07 10:29:05;;;;;;;11.97;11.27;;;;;;;3.64;100.00;92549.78;5062842;28;20225;-74
2023/12/07 10:31:32;;;;;;;12.13;11.43;;;;;;;3.68;100.00;92553.44;5063103;28;20241;-74
2023/12/07 10:33:59;;;;;;;11.57;11.07;;;;;;;3.21;100.00;92537.56;5051269;28;20221;-74
2023/12/07 10:36:24;;;;;;;11.23;10.53;;;;;;;3.48;100.00;92554.94;5056235;28;20804;-73
2023/12/07 10:38:53;;;;;;;9.90;9.50;;;;;;;3.40;100.00;92550.97;5061388;28;20263;-74
2023/12/07 10:41:23;;;;;;;12.30;11.33;;;;;;;3.36;100.00;92552.47;5061080;28;20196;-74
2023/12/07 10:43:57;;;;;;;10.80;10.30;;;;;;;3.15;100.00;92532.53;5053922;28;20217;-75
2023/12/07 10:46:23;;;;;;;14.03;12.90;;;;;;;3.18;100.00;92493.38;5085154;28;20186;-74
2023/12/07 10:48:54;;;;;;;11.23;10.67;;;;;;;3.23;100.00;92550.22;5050716;28;20245;-74
2023/12/07 10:51:40;;;;;;;13.87;12.97;;;;;;;3.24;100.00;92538.88;5064151;28;20185;-74
2023/12/07 10:54:08;;;;;;;14.10;13.10;;;;;;;3.55;100.00;92550.41;5059497;28;20264;-74
2023/12/07 10:56:44;;;;;;;11.77;11.03;;;;;;;3.42;100.00;92541.22;5066789;28;20174;-75
2023/12/07 10:59:13;;;;;;;12.23;11.53;;;;;;;3.11;100.00;92536.63;5054331;28;20238;-74
2023/12/07 11:01:40;;;;;;;14.07;13.03;;;;;;;3.06;100.00;92541.69;5055789;28;20178;-74
2023/12/07 11:04:06;;;;;;;14.73;13.43;;;;;;;3.17;100.00;92549.38;5050770;28;20237;-74
2023/12/07 11:06:35;;;;;;;12.83;11.93;;;;;;;3.40;100.00;92545.03;5069215;28;20182;-74
2023/12/07 11:09:07;;;;;;;13.53;12.63;;;;;;;3.30;100.00;92548.22;5062872;28;20213;-74
2023/12/07 11:11:55;;;;;;;10.90;10.40;;;;;;;3.11;100.00;92544.34;5071949;28;20195;-74